sensor_id;sensor_type;location;lat;lon;timestamp;temperature;humidity
72905;DHT22;61048;52.162;4.516;2023-01-25T00:01:02;14.70;55.10
72905;DHT22;61048;52.162;4.516;2023-01-25T00:03:29;14.70;55.30
72905;DHT22;61048;52.162;4.516;2023-01-25T00:05:59;14.70;55.70
72905;DHT22;61048;52.162;4.516;2023-01-25T00:08:26;14.70;55.60
72905;DHT22;61048;52.162;4.516;2023-01-25T00:10:55;14.60;55.20
72905;DHT22;61048;52.162;4.516;2023-01-25T00:13:22;14.50;55.20
72905;DHT22;61048;52.162;4.516;2023-01-25T00:15:48;14.50;55.60
72905;DHT22;61048;52.162;4.516;2023-01-25T00:18:15;14.60;54.90
72905;DHT22;61048;52.162;4.516;2023-01-25T00:20:42;14.60;55.10
72905;DHT22;61048;52.162;4.516;2023-01-25T00:23:09;14.60;55.00
72905;DHT22;61048;52.162;4.516;2023-01-25T00:25:36;14.60;55.00
72905;DHT22;61048;52.162;4.516;2023-01-25T00:28:04;14.60;54.70
72905;DHT22;61048;52.162;4.516;2023-01-25T00:30:31;14.70;54.80
72905;DHT22;61048;52.162;4.516;2023-01-25T00:33:05;14.70;54.80
72905;DHT22;61048;52.162;4.516;2023-01-25T00:35:33;14.70;55.00
72905;DHT22;61048;52.162;4.516;2023-01-25T00:38:01;14.60;55.10
72905;DHT22;61048;52.162;4.516;2023-01-25T00:40:31;14.60;55.10
72905;DHT22;61048;52.162;4.516;2023-01-25T00:42:58;14.70;55.10
72905;DHT22;61048;52.162;4.516;2023-01-25T00:45:27;14.60;55.00
72905;DHT22;61048;52.162;4.516;2023-01-25T00:47:54;14.70;54.90
72905;DHT22;61048;52.162;4.516;2023-01-25T00:50:21;14.70;54.90
72905;DHT22;61048;52.162;4.516;2023-01-25T00:52:48;14.60;54.80
72905;DHT22;61048;52.162;4.516;2023-01-25T00:55:15;14.60;54.80
72905;DHT22;61048;52.162;4.516;2023-01-25T00:57:42;14.60;54.80
72905;DHT22;61048;52.162;4.516;2023-01-25T01:00:10;14.60;54.90
72905;DHT22;61048;52.162;4.516;2023-01-25T01:02:38;14.60;54.80
72905;DHT22;61048;52.162;4.516;2023-01-25T01:05:06;14.60;54.90
72905;DHT22;61048;52.162;4.516;2023-01-25T01:07:33;14.60;54.70
72905;DHT22;61048;52.162;4.516;2023-01-25T01:10:00;14.50;55.00
72905;DHT22;61048;52.162;4.516;2023-01-25T01:12:27;14.50;54.80
72905;DHT22;61048;52.162;4.516;2023-01-25T01:14:53;14.50;55.10
72905;DHT22;61048;52.162;4.516;2023-01-25T01:17:21;14.50;55.20
72905;DHT22;61048;52.162;4.516;2023-01-25T01:19:49;14.50;55.00
72905;DHT22;61048;52.162;4.516;2023-01-25T01:22:16;14.50;55.00
72905;DHT22;61048;52.162;4.516;2023-01-25T01:24:42;14.50;55.10
72905;DHT22;61048;52.162;4.516;2023-01-25T01:27:09;14.50;55.10
72905;DHT22;61048;52.162;4.516;2023-01-25T01:29:36;14.50;55.00
72905;DHT22;61048;52.162;4.516;2023-01-25T01:32:03;14.50;55.10
72905;DHT22;61048;52.162;4.516;2023-01-25T01:34:30;14.50;55.30
72905;DHT22;61048;52.162;4.516;2023-01-25T01:36:58;14.50;55.30
72905;DHT22;61048;52.162;4.516;2023-01-25T01:39:25;14.50;55.30
72905;DHT22;61048;52.162;4.516;2023-01-25T01:41:52;14.50;55.50
72905;DHT22;61048;52.162;4.516;2023-01-25T01:44:21;14.50;55.30
72905;DHT22;61048;52.162;4.516;2023-01-25T01:47:12;14.50;55.30
72905;DHT22;61048;52.162;4.516;2023-01-25T01:49:43;14.50;55.50
72905;DHT22;61048;52.162;4.516;2023-01-25T01:52:14;14.50;55.40
72905;DHT22;61048;52.162;4.516;2023-01-25T01:54:44;14.50;55.50
72905;DHT22;61048;52.162;4.516;2023-01-25T01:57:15;14.50;55.70
72905;DHT22;61048;52.162;4.516;2023-01-25T01:59:47;14.50;55.80
72905;DHT22;61048;52.162;4.516;2023-01-25T02:02:15;14.50;55.80
72905;DHT22;61048;52.162;4.516;2023-01-25T02:04:45;14.50;55.80
72905;DHT22;61048;52.162;4.516;2023-01-25T02:07:16;14.50;55.60
72905;DHT22;61048;52.162;4.516;2023-01-25T02:09:44;14.50;55.70
72905;DHT22;61048;52.162;4.516;2023-01-25T02:12:12;14.50;55.90
72905;DHT22;61048;52.162;4.516;2023-01-25T02:14:45;14.50;56.00
72905;DHT22;61048;52.162;4.516;2023-01-25T02:17:13;14.50;55.80
72905;DHT22;61048;52.162;4.516;2023-01-25T02:19:46;14.50;55.80
72905;DHT22;61048;52.162;4.516;2023-01-25T02:22:21;14.50;56.00
72905;DHT22;61048;52.162;4.516;2023-01-25T02:24:59;14.50;56.00
72905;DHT22;61048;52.162;4.516;2023-01-25T02:27:27;14.50;55.80
72905;DHT22;61048;52.162;4.516;2023-01-25T02:29:54;14.50;56.00
72905;DHT22;61048;52.162;4.516;2023-01-25T02:32:21;14.50;55.80
72905;DHT22;61048;52.162;4.516;2023-01-25T02:34:48;14.50;55.70
72905;DHT22;61048;52.162;4.516;2023-01-25T02:37:15;14.40;55.90
72905;DHT22;61048;52.162;4.516;2023-01-25T02:39:42;14.40;56.10
72905;DHT22;61048;52.162;4.516;2023-01-25T02:42:10;14.40;56.00
72905;DHT22;61048;52.162;4.516;2023-01-25T02:44:37;14.40;56.00
72905;DHT22;61048;52.162;4.516;2023-01-25T02:47:04;14.40;56.10
72905;DHT22;61048;52.162;4.516;2023-01-25T02:49:34;14.40;56.00
72905;DHT22;61048;52.162;4.516;2023-01-25T02:52:02;14.40;56.00
72905;DHT22;61048;52.162;4.516;2023-01-25T02:54:29;14.40;56.30
72905;DHT22;61048;52.162;4.516;2023-01-25T02:56:56;14.40;56.20
72905;DHT22;61048;52.162;4.516;2023-01-25T02:59:24;14.40;56.30
72905;DHT22;61048;52.162;4.516;2023-01-25T03:01:51;14.40;56.40
72905;DHT22;61048;52.162;4.516;2023-01-25T03:04:18;14.40;56.30
72905;DHT22;61048;52.162;4.516;2023-01-25T03:06:45;14.40;56.20
72905;DHT22;61048;52.162;4.516;2023-01-25T03:09:12;14.40;56.20
72905;DHT22;61048;52.162;4.516;2023-01-25T03:11:39;14.40;55.90
72905;DHT22;61048;52.162;4.516;2023-01-25T03:14:06;14.40;56.00
72905;DHT22;61048;52.162;4.516;2023-01-25T03:16:34;14.40;56.00
72905;DHT22;61048;52.162;4.516;2023-01-25T03:19:01;14.40;56.10
72905;DHT22;61048;52.162;4.516;2023-01-25T03:21:28;14.40;56.00
72905;DHT22;61048;52.162;4.516;2023-01-25T03:23:57;14.30;56.20
72905;DHT22;61048;52.162;4.516;2023-01-25T03:26:25;14.30;56.30
72905;DHT22;61048;52.162;4.516;2023-01-25T03:28:52;14.30;56.00
72905;DHT22;61048;52.162;4.516;2023-01-25T03:31:19;14.30;56.30
72905;DHT22;61048;52.162;4.516;2023-01-25T03:33:48;14.30;56.20
72905;DHT22;61048;52.162;4.516;2023-01-25T03:36:14;14.30;56.10
72905;DHT22;61048;52.162;4.516;2023-01-25T03:38:41;14.30;56.30
72905;DHT22;61048;52.162;4.516;2023-01-25T03:41:08;14.30;56.70
72905;DHT22;61048;52.162;4.516;2023-01-25T03:43:37;14.30;56.60
72905;DHT22;61048;52.162;4.516;2023-01-25T03:46:04;14.30;56.70
72905;DHT22;61048;52.162;4.516;2023-01-25T03:48:31;14.30;56.60
72905;DHT22;61048;52.162;4.516;2023-01-25T03:50:59;14.30;56.30
72905;DHT22;61048;52.162;4.516;2023-01-25T03:53:27;14.30;56.70
72905;DHT22;61048;52.162;4.516;2023-01-25T03:55:56;14.30;56.60
72905;DHT22;61048;52.162;4.516;2023-01-25T03:58:23;14.30;56.50
72905;DHT22;61048;52.162;4.516;2023-01-25T04:00:50;14.30;56.70
72905;DHT22;61048;52.162;4.516;2023-01-25T04:03:17;14.30;56.30
72905;DHT22;61048;52.162;4.516;2023-01-25T04:05:46;14.30;56.80
72905;DHT22;61048;52.162;4.516;2023-01-25T04:08:14;14.20;56.60
72905;DHT22;61048;52.162;4.516;2023-01-25T04:10:41;14.20;56.70
72905;DHT22;61048;52.162;4.516;2023-01-25T04:13:08;14.20;57.10
72905;DHT22;61048;52.162;4.516;2023-01-25T04:15:35;14.30;56.90
72905;DHT22;61048;52.162;4.516;2023-01-25T04:18:02;14.20;56.70
72905;DHT22;61048;52.162;4.516;2023-01-25T04:20:29;14.20;56.60
72905;DHT22;61048;52.162;4.516;2023-01-25T04:22:56;14.20;56.80
72905;DHT22;61048;52.162;4.516;2023-01-25T04:25:24;14.20;56.70
72905;DHT22;61048;52.162;4.516;2023-01-25T04:27:51;14.20;57.40
72905;DHT22;61048;52.162;4.516;2023-01-25T04:30:18;14.20;56.90
72905;DHT22;61048;52.162;4.516;2023-01-25T04:32:44;14.20;57.10
72905;DHT22;61048;52.162;4.516;2023-01-25T04:35:11;14.20;56.70
72905;DHT22;61048;52.162;4.516;2023-01-25T04:37:38;14.20;57.00
72905;DHT22;61048;52.162;4.516;2023-01-25T04:40:06;14.20;57.00
72905;DHT22;61048;52.162;4.516;2023-01-25T04:42:35;14.20;57.10
72905;DHT22;61048;52.162;4.516;2023-01-25T04:45:02;14.20;57.50
72905;DHT22;61048;52.162;4.516;2023-01-25T04:47:29;14.20;57.40
72905;DHT22;61048;52.162;4.516;2023-01-25T04:49:56;14.30;57.70
72905;DHT22;61048;52.162;4.516;2023-01-25T04:52:23;14.20;57.60
72905;DHT22;61048;52.162;4.516;2023-01-25T04:54:49;14.20;57.50
72905;DHT22;61048;52.162;4.516;2023-01-25T04:57:16;14.30;57.60
72905;DHT22;61048;52.162;4.516;2023-01-25T04:59:44;14.30;57.50
72905;DHT22;61048;52.162;4.516;2023-01-25T05:02:11;14.30;57.90
72905;DHT22;61048;52.162;4.516;2023-01-25T05:04:38;14.30;57.90
72905;DHT22;61048;52.162;4.516;2023-01-25T05:07:05;14.30;57.80
72905;DHT22;61048;52.162;4.516;2023-01-25T05:09:32;14.30;57.80
72905;DHT22;61048;52.162;4.516;2023-01-25T05:11:59;14.30;57.50
72905;DHT22;61048;52.162;4.516;2023-01-25T05:14:26;14.30;57.50
72905;DHT22;61048;52.162;4.516;2023-01-25T05:16:54;14.30;57.50
72905;DHT22;61048;52.162;4.516;2023-01-25T05:19:21;14.30;57.70
72905;DHT22;61048;52.162;4.516;2023-01-25T05:21:47;14.30;57.80
72905;DHT22;61048;52.162;4.516;2023-01-25T05:24:23;14.20;58.00
72905;DHT22;61048;52.162;4.516;2023-01-25T05:26:50;14.20;57.50
72905;DHT22;61048;52.162;4.516;2023-01-25T05:29:25;14.20;57.60
72905;DHT22;61048;52.162;4.516;2023-01-25T05:31:54;14.20;57.60
72905;DHT22;61048;52.162;4.516;2023-01-25T05:34:21;14.20;57.30
72905;DHT22;61048;52.162;4.516;2023-01-25T05:36:48;14.20;57.10
72905;DHT22;61048;52.162;4.516;2023-01-25T05:39:15;14.20;57.70
72905;DHT22;61048;52.162;4.516;2023-01-25T05:41:43;14.20;57.80
72905;DHT22;61048;52.162;4.516;2023-01-25T05:44:09;14.20;57.70
72905;DHT22;61048;52.162;4.516;2023-01-25T05:46:36;14.20;58.10
72905;DHT22;61048;52.162;4.516;2023-01-25T05:49:05;14.20;57.80
72905;DHT22;61048;52.162;4.516;2023-01-25T05:51:32;14.20;58.00
72905;DHT22;61048;52.162;4.516;2023-01-25T05:54:00;14.20;58.10
72905;DHT22;61048;52.162;4.516;2023-01-25T05:56:27;14.20;57.60
72905;DHT22;61048;52.162;4.516;2023-01-25T05:58:55;14.20;58.10
72905;DHT22;61048;52.162;4.516;2023-01-25T06:01:22;14.20;57.90
72905;DHT22;61048;52.162;4.516;2023-01-25T06:03:50;14.20;57.80
72905;DHT22;61048;52.162;4.516;2023-01-25T06:06:18;14.20;57.90
72905;DHT22;61048;52.162;4.516;2023-01-25T06:08:46;14.20;57.60
72905;DHT22;61048;52.162;4.516;2023-01-25T06:11:15;14.20;58.00
72905;DHT22;61048;52.162;4.516;2023-01-25T06:13:42;14.30;58.10
72905;DHT22;61048;52.162;4.516;2023-01-25T06:16:09;14.30;57.90
72905;DHT22;61048;52.162;4.516;2023-01-25T06:18:36;14.30;57.90
72905;DHT22;61048;52.162;4.516;2023-01-25T06:21:04;14.30;58.20
72905;DHT22;61048;52.162;4.516;2023-01-25T06:23:32;14.20;58.00
72905;DHT22;61048;52.162;4.516;2023-01-25T06:26:01;14.30;58.00
72905;DHT22;61048;52.162;4.516;2023-01-25T06:28:29;14.30;58.00
72905;DHT22;61048;52.162;4.516;2023-01-25T06:31:01;14.30;58.30
72905;DHT22;61048;52.162;4.516;2023-01-25T06:33:28;14.30;58.00
72905;DHT22;61048;52.162;4.516;2023-01-25T06:35:59;14.30;57.90
72905;DHT22;61048;52.162;4.516;2023-01-25T06:38:25;14.30;57.70
72905;DHT22;61048;52.162;4.516;2023-01-25T06:40:58;14.20;58.40
72905;DHT22;61048;52.162;4.516;2023-01-25T06:43:25;14.30;58.10
72905;DHT22;61048;52.162;4.516;2023-01-25T06:45:56;14.30;58.00
72905;DHT22;61048;52.162;4.516;2023-01-25T06:48:22;14.30;57.90
72905;DHT22;61048;52.162;4.516;2023-01-25T06:50:53;14.30;57.80
72905;DHT22;61048;52.162;4.516;2023-01-25T06:53:20;14.30;57.80
72905;DHT22;61048;52.162;4.516;2023-01-25T06:55:46;14.30;58.00
72905;DHT22;61048;52.162;4.516;2023-01-25T06:58:15;14.30;57.80
72905;DHT22;61048;52.162;4.516;2023-01-25T07:00:41;14.40;58.20
72905;DHT22;61048;52.162;4.516;2023-01-25T07:03:08;14.40;58.00
72905;DHT22;61048;52.162;4.516;2023-01-25T07:05:35;14.40;58.10
72905;DHT22;61048;52.162;4.516;2023-01-25T07:08:02;14.30;58.00
72905;DHT22;61048;52.162;4.516;2023-01-25T07:10:29;14.40;58.00
72905;DHT22;61048;52.162;4.516;2023-01-25T07:12:56;14.40;57.90
72905;DHT22;61048;52.162;4.516;2023-01-25T07:15:24;14.40;57.50
72905;DHT22;61048;52.162;4.516;2023-01-25T07:17:51;14.30;58.00
72905;DHT22;61048;52.162;4.516;2023-01-25T07:20:19;14.30;58.40
72905;DHT22;61048;52.162;4.516;2023-01-25T07:22:46;14.40;58.00
72905;DHT22;61048;52.162;4.516;2023-01-25T07:25:13;14.30;58.00
72905;DHT22;61048;52.162;4.516;2023-01-25T07:27:40;14.30;58.70
72905;DHT22;61048;52.162;4.516;2023-01-25T07:30:08;14.40;58.50
72905;DHT22;61048;52.162;4.516;2023-01-25T07:32:36;14.50;58.10
72905;DHT22;61048;52.162;4.516;2023-01-25T07:35:04;14.40;57.60
72905;DHT22;61048;52.162;4.516;2023-01-25T07:37:30;14.30;57.90
72905;DHT22;61048;52.162;4.516;2023-01-25T07:39:58;14.30;58.00
72905;DHT22;61048;52.162;4.516;2023-01-25T07:42:25;14.30;57.90
72905;DHT22;61048;52.162;4.516;2023-01-25T07:44:52;14.30;57.70
72905;DHT22;61048;52.162;4.516;2023-01-25T07:47:19;14.30;57.70
72905;DHT22;61048;52.162;4.516;2023-01-25T07:49:47;14.30;57.90
72905;DHT22;61048;52.162;4.516;2023-01-25T07:52:14;14.30;58.40
72905;DHT22;61048;52.162;4.516;2023-01-25T07:54:41;14.40;58.00
72905;DHT22;61048;52.162;4.516;2023-01-25T07:57:08;14.50;57.80
72905;DHT22;61048;52.162;4.516;2023-01-25T07:59:34;14.50;57.90
72905;DHT22;61048;52.162;4.516;2023-01-25T08:02:01;14.50;57.80
72905;DHT22;61048;52.162;4.516;2023-01-25T08:04:28;14.50;57.70
72905;DHT22;61048;52.162;4.516;2023-01-25T08:06:57;14.50;57.80
72905;DHT22;61048;52.162;4.516;2023-01-25T08:09:23;14.50;57.40
72905;DHT22;61048;52.162;4.516;2023-01-25T08:11:50;14.50;57.80
72905;DHT22;61048;52.162;4.516;2023-01-25T08:14:18;14.50;57.70
72905;DHT22;61048;52.162;4.516;2023-01-25T08:16:44;14.50;57.70
72905;DHT22;61048;52.162;4.516;2023-01-25T08:19:11;14.50;57.80
72905;DHT22;61048;52.162;4.516;2023-01-25T08:21:38;14.60;57.50
72905;DHT22;61048;52.162;4.516;2023-01-25T08:24:07;14.50;57.50
72905;DHT22;61048;52.162;4.516;2023-01-25T08:26:35;14.50;57.50
72905;DHT22;61048;52.162;4.516;2023-01-25T08:29:02;14.50;57.50
72905;DHT22;61048;52.162;4.516;2023-01-25T08:31:31;14.60;57.50
72905;DHT22;61048;52.162;4.516;2023-01-25T08:33:58;14.50;57.20
72905;DHT22;61048;52.162;4.516;2023-01-25T08:36:26;14.50;57.40
72905;DHT22;61048;52.162;4.516;2023-01-25T08:38:55;14.50;57.30
72905;DHT22;61048;52.162;4.516;2023-01-25T08:41:24;14.50;57.80
72905;DHT22;61048;52.162;4.516;2023-01-25T08:43:52;14.50;57.90
72905;DHT22;61048;52.162;4.516;2023-01-25T08:46:20;14.50;57.50
72905;DHT22;61048;52.162;4.516;2023-01-25T08:48:47;14.50;57.70
72905;DHT22;61048;52.162;4.516;2023-01-25T08:51:15;14.50;57.70
72905;DHT22;61048;52.162;4.516;2023-01-25T08:53:42;14.50;57.60
72905;DHT22;61048;52.162;4.516;2023-01-25T08:56:11;14.50;57.80
72905;DHT22;61048;52.162;4.516;2023-01-25T08:58:42;14.50;57.80
72905;DHT22;61048;52.162;4.516;2023-01-25T09:01:10;14.50;57.60
72905;DHT22;61048;52.162;4.516;2023-01-25T09:03:39;14.50;57.40
72905;DHT22;61048;52.162;4.516;2023-01-25T09:06:07;14.50;57.70
72905;DHT22;61048;52.162;4.516;2023-01-25T09:08:34;14.50;57.90
72905;DHT22;61048;52.162;4.516;2023-01-25T09:11:03;14.50;58.10
72905;DHT22;61048;52.162;4.516;2023-01-25T09:13:30;14.50;57.90
72905;DHT22;61048;52.162;4.516;2023-01-25T09:16:02;14.50;58.20
72905;DHT22;61048;52.162;4.516;2023-01-25T09:18:29;14.50;58.00
72905;DHT22;61048;52.162;4.516;2023-01-25T09:20:56;14.50;58.00
72905;DHT22;61048;52.162;4.516;2023-01-25T09:23:24;14.50;58.10
72905;DHT22;61048;52.162;4.516;2023-01-25T09:25:55;14.50;57.70
72905;DHT22;61048;52.162;4.516;2023-01-25T09:28:23;14.50;57.60
72905;DHT22;61048;52.162;4.516;2023-01-25T09:30:54;14.50;58.00
72905;DHT22;61048;52.162;4.516;2023-01-25T09:33:25;14.50;58.10
72905;DHT22;61048;52.162;4.516;2023-01-25T09:35:52;14.40;58.00
72905;DHT22;61048;52.162;4.516;2023-01-25T09:38:19;14.50;58.10
72905;DHT22;61048;52.162;4.516;2023-01-25T09:40:55;14.50;57.90
72905;DHT22;61048;52.162;4.516;2023-01-25T09:43:33;14.50;58.00
72905;DHT22;61048;52.162;4.516;2023-01-25T09:46:08;14.40;58.10
72905;DHT22;61048;52.162;4.516;2023-01-25T09:48:47;14.50;58.10
72905;DHT22;61048;52.162;4.516;2023-01-25T09:51:24;14.50;58.20
72905;DHT22;61048;52.162;4.516;2023-01-25T09:53:53;14.50;58.00
72905;DHT22;61048;52.162;4.516;2023-01-25T09:56:23;14.50;58.20
72905;DHT22;61048;52.162;4.516;2023-01-25T09:58:53;14.50;57.80
72905;DHT22;61048;52.162;4.516;2023-01-25T10:01:27;14.50;58.20
72905;DHT22;61048;52.162;4.516;2023-01-25T10:04:00;14.50;57.80
72905;DHT22;61048;52.162;4.516;2023-01-25T10:06:36;14.40;57.60
72905;DHT22;61048;52.162;4.516;2023-01-25T10:09:16;14.40;57.70
72905;DHT22;61048;52.162;4.516;2023-01-25T10:11:45;14.40;57.80
72905;DHT22;61048;52.162;4.516;2023-01-25T10:14:15;14.30;56.90
72905;DHT22;61048;52.162;4.516;2023-01-25T10:16:52;14.30;57.40
72905;DHT22;61048;52.162;4.516;2023-01-25T10:19:29;14.30;56.90
72905;DHT22;61048;52.162;4.516;2023-01-25T10:22:01;14.30;56.70
72905;DHT22;61048;52.162;4.516;2023-01-25T10:24:42;14.20;57.90
72905;DHT22;61048;52.162;4.516;2023-01-25T10:27:25;14.30;58.90
72905;DHT22;61048;52.162;4.516;2023-01-25T10:29:56;14.20;58.50
72905;DHT22;61048;52.162;4.516;2023-01-25T10:32:25;14.20;58.10
72905;DHT22;61048;52.162;4.516;2023-01-25T10:35:04;14.20;58.00
72905;DHT22;61048;52.162;4.516;2023-01-25T10:37:37;14.20;59.00
72905;DHT22;61048;52.162;4.516;2023-01-25T10:40:13;14.20;58.70
72905;DHT22;61048;52.162;4.516;2023-01-25T10:42:45;14.30;61.80
72905;DHT22;61048;52.162;4.516;2023-01-25T10:45:14;14.30;62.50
72905;DHT22;61048;52.162;4.516;2023-01-25T10:47:44;14.30;61.80
72905;DHT22;61048;52.162;4.516;2023-01-25T10:50:44;14.30;62.40
72905;DHT22;61048;52.162;4.516;2023-01-25T10:53:24;14.30;62.40
72905;DHT22;61048;52.162;4.516;2023-01-25T10:56:10;14.30;62.60
72905;DHT22;61048;52.162;4.516;2023-01-25T10:58:39;14.30;61.90
72905;DHT22;61048;52.162;4.516;2023-01-25T11:01:09;14.30;62.10
72905;DHT22;61048;52.162;4.516;2023-01-25T11:03:39;14.30;62.40
72905;DHT22;61048;52.162;4.516;2023-01-25T11:06:08;14.30;62.10
72905;DHT22;61048;52.162;4.516;2023-01-25T11:08:37;14.30;61.60
72905;DHT22;61048;52.162;4.516;2023-01-25T11:11:22;14.30;61.90
72905;DHT22;61048;52.162;4.516;2023-01-25T11:13:51;14.30;61.90
72905;DHT22;61048;52.162;4.516;2023-01-25T11:16:28;14.30;62.00
72905;DHT22;61048;52.162;4.516;2023-01-25T11:18:57;14.30;62.00
72905;DHT22;61048;52.162;4.516;2023-01-25T11:21:26;14.30;62.00
72905;DHT22;61048;52.162;4.516;2023-01-25T11:24:02;14.30;61.70
72905;DHT22;61048;52.162;4.516;2023-01-25T11:26:30;14.30;61.50
72905;DHT22;61048;52.162;4.516;2023-01-25T11:29:11;14.30;61.50
72905;DHT22;61048;52.162;4.516;2023-01-25T11:31:39;14.30;61.30
72905;DHT22;61048;52.162;4.516;2023-01-25T11:34:11;14.30;61.90
72905;DHT22;61048;52.162;4.516;2023-01-25T11:36:48;14.30;63.10
72905;DHT22;61048;52.162;4.516;2023-01-25T11:39:28;14.40;62.60
72905;DHT22;61048;52.162;4.516;2023-01-25T11:42:10;14.40;62.70
72905;DHT22;61048;52.162;4.516;2023-01-25T11:45:18;14.30;62.00
72905;DHT22;61048;52.162;4.516;2023-01-25T11:48:00;14.30;61.90
72905;DHT22;61048;52.162;4.516;2023-01-25T11:50:33;14.30;62.10
72905;DHT22;61048;52.162;4.516;2023-01-25T11:53:25;14.30;62.20
72905;DHT22;61048;52.162;4.516;2023-01-25T11:55:59;14.40;62.00
72905;DHT22;61048;52.162;4.516;2023-01-25T11:58:44;14.40;61.90
72905;DHT22;61048;52.162;4.516;2023-01-25T12:01:17;14.30;61.50
72905;DHT22;61048;52.162;4.516;2023-01-25T12:06:55;14.30;61.10
72905;DHT22;61048;52.162;4.516;2023-01-25T12:09:37;14.40;61.40
72905;DHT22;61048;52.162;4.516;2023-01-25T12:12:12;14.30;61.10
72905;DHT22;61048;52.162;4.516;2023-01-25T12:17:48;14.30;60.90
72905;DHT22;61048;52.162;4.516;2023-01-25T12:20:30;14.30;60.70
72905;DHT22;61048;52.162;4.516;2023-01-25T12:23:10;14.30;61.10
72905;DHT22;61048;52.162;4.516;2023-01-25T12:25:47;14.30;61.00
72905;DHT22;61048;52.162;4.516;2023-01-25T12:28:20;14.30;61.00
72905;DHT22;61048;52.162;4.516;2023-01-25T12:30:52;14.40;60.30
72905;DHT22;61048;52.162;4.516;2023-01-25T12:33:22;14.30;60.50
72905;DHT22;61048;52.162;4.516;2023-01-25T12:35:55;14.30;60.20
72905;DHT22;61048;52.162;4.516;2023-01-25T12:38:26;14.30;60.50
72905;DHT22;61048;52.162;4.516;2023-01-25T12:40:59;14.30;60.40
72905;DHT22;61048;52.162;4.516;2023-01-25T12:43:32;14.30;60.20
72905;DHT22;61048;52.162;4.516;2023-01-25T12:46:08;14.30;60.20
72905;DHT22;61048;52.162;4.516;2023-01-25T12:48:40;14.30;60.00
72905;DHT22;61048;52.162;4.516;2023-01-25T12:51:10;14.20;60.00
72905;DHT22;61048;52.162;4.516;2023-01-25T12:53:40;14.20;60.00
72905;DHT22;61048;52.162;4.516;2023-01-25T12:56:27;14.30;59.90
72905;DHT22;61048;52.162;4.516;2023-01-25T12:58:59;14.20;59.30
72905;DHT22;61048;52.162;4.516;2023-01-25T13:01:32;14.30;59.50
72905;DHT22;61048;52.162;4.516;2023-01-25T13:04:14;14.30;59.60
72905;DHT22;61048;52.162;4.516;2023-01-25T13:06:48;14.30;59.30
72905;DHT22;61048;52.162;4.516;2023-01-25T13:09:21;14.20;59.30
72905;DHT22;61048;52.162;4.516;2023-01-25T13:11:52;14.20;59.10
72905;DHT22;61048;52.162;4.516;2023-01-25T13:14:27;14.20;59.10
72905;DHT22;61048;52.162;4.516;2023-01-25T13:17:17;14.20;58.90
72905;DHT22;61048;52.162;4.516;2023-01-25T13:19:46;14.20;59.20
72905;DHT22;61048;52.162;4.516;2023-01-25T13:22:13;14.20;59.10
72905;DHT22;61048;52.162;4.516;2023-01-25T13:25:17;14.20;58.70
72905;DHT22;61048;52.162;4.516;2023-01-25T13:27:46;14.10;59.00
72905;DHT22;61048;52.162;4.516;2023-01-25T13:30:31;14.20;59.00
72905;DHT22;61048;52.162;4.516;2023-01-25T13:33:00;14.10;58.60
72905;DHT22;61048;52.162;4.516;2023-01-25T13:35:36;14.20;58.90
72905;DHT22;61048;52.162;4.516;2023-01-25T13:41:05;14.20;58.50
72905;DHT22;61048;52.162;4.516;2023-01-25T13:43:38;14.10;58.40
72905;DHT22;61048;52.162;4.516;2023-01-25T13:46:09;14.10;58.40
72905;DHT22;61048;52.162;4.516;2023-01-25T13:48:44;14.10;58.10
72905;DHT22;61048;52.162;4.516;2023-01-25T13:51:13;14.10;58.00
72905;DHT22;61048;52.162;4.516;2023-01-25T13:53:54;14.10;58.00
72905;DHT22;61048;52.162;4.516;2023-01-25T13:56:26;14.10;58.20
72905;DHT22;61048;52.162;4.516;2023-01-25T13:58:54;14.10;57.80
72905;DHT22;61048;52.162;4.516;2023-01-25T14:01:21;14.10;58.00
72905;DHT22;61048;52.162;4.516;2023-01-25T14:03:51;14.10;58.40
72905;DHT22;61048;52.162;4.516;2023-01-25T14:06:21;14.10;58.30
72905;DHT22;61048;52.162;4.516;2023-01-25T14:08:50;14.10;58.30
72905;DHT22;61048;52.162;4.516;2023-01-25T14:11:19;14.10;58.10
72905;DHT22;61048;52.162;4.516;2023-01-25T14:14:02;14.00;58.20
72905;DHT22;61048;52.162;4.516;2023-01-25T14:16:40;14.00;58.10
72905;DHT22;61048;52.162;4.516;2023-01-25T14:19:20;14.10;58.30
72905;DHT22;61048;52.162;4.516;2023-01-25T14:21:47;14.10;58.20
72905;DHT22;61048;52.162;4.516;2023-01-25T14:24:16;14.10;58.70
72905;DHT22;61048;52.162;4.516;2023-01-25T14:26:45;14.10;58.10
72905;DHT22;61048;52.162;4.516;2023-01-25T14:29:18;14.10;58.10
72905;DHT22;61048;52.162;4.516;2023-01-25T14:31:49;14.10;58.10
72905;DHT22;61048;52.162;4.516;2023-01-25T14:34:18;14.10;58.10
72905;DHT22;61048;52.162;4.516;2023-01-25T14:36:46;14.00;58.10
72905;DHT22;61048;52.162;4.516;2023-01-25T14:39:19;14.00;58.00
72905;DHT22;61048;52.162;4.516;2023-01-25T14:41:50;13.90;57.60
72905;DHT22;61048;52.162;4.516;2023-01-25T14:44:20;13.90;57.90
72905;DHT22;61048;52.162;4.516;2023-01-25T14:46:47;14.00;57.90
72905;DHT22;61048;52.162;4.516;2023-01-25T14:49:17;14.00;57.80
72905;DHT22;61048;52.162;4.516;2023-01-25T14:51:53;14.00;57.90
72905;DHT22;61048;52.162;4.516;2023-01-25T14:54:23;14.00;58.00
72905;DHT22;61048;52.162;4.516;2023-01-25T14:56:52;14.00;57.90
72905;DHT22;61048;52.162;4.516;2023-01-25T14:59:27;13.90;58.30
72905;DHT22;61048;52.162;4.516;2023-01-25T15:01:57;13.90;57.70
72905;DHT22;61048;52.162;4.516;2023-01-25T15:04:24;14.00;57.90
72905;DHT22;61048;52.162;4.516;2023-01-25T15:06:53;14.00;57.90
72905;DHT22;61048;52.162;4.516;2023-01-25T15:09:31;14.00;57.80
72905;DHT22;61048;52.162;4.516;2023-01-25T15:11:59;14.00;57.80
72905;DHT22;61048;52.162;4.516;2023-01-25T15:14:27;13.90;57.50
72905;DHT22;61048;52.162;4.516;2023-01-25T15:16:54;13.90;57.90
72905;DHT22;61048;52.162;4.516;2023-01-25T15:19:27;14.00;57.60
72905;DHT22;61048;52.162;4.516;2023-01-25T15:21:55;13.90;57.50
72905;DHT22;61048;52.162;4.516;2023-01-25T15:24:23;13.80;57.50
72905;DHT22;61048;52.162;4.516;2023-01-25T15:26:52;13.90;57.70
72905;DHT22;61048;52.162;4.516;2023-01-25T15:29:21;13.90;57.90
72905;DHT22;61048;52.162;4.516;2023-01-25T15:31:50;13.90;57.60
72905;DHT22;61048;52.162;4.516;2023-01-25T15:34:19;13.90;58.00
72905;DHT22;61048;52.162;4.516;2023-01-25T15:36:47;14.00;58.00
72905;DHT22;61048;52.162;4.516;2023-01-25T15:39:15;14.00;57.80
72905;DHT22;61048;52.162;4.516;2023-01-25T15:41:43;14.00;57.70
72905;DHT22;61048;52.162;4.516;2023-01-25T15:44:10;14.00;58.00
72905;DHT22;61048;52.162;4.516;2023-01-25T15:46:38;14.00;58.00
72905;DHT22;61048;52.162;4.516;2023-01-25T15:49:09;14.00;57.80
72905;DHT22;61048;52.162;4.516;2023-01-25T15:51:39;14.00;57.90
72905;DHT22;61048;52.162;4.516;2023-01-25T15:54:06;14.00;57.20
72905;DHT22;61048;52.162;4.516;2023-01-25T15:56:34;14.00;57.20